createdAt,value
2022-11-28T00:00:01.014Z,14.60
2022-11-28T00:00:22.082Z,13.20
2022-11-28T00:00:43.144Z,13.70
2022-11-28T00:01:04.245Z,14.10
2022-11-28T00:01:25.282Z,14.40
2022-11-28T00:01:46.389Z,13.80
2022-11-28T00:02:07.529Z,13.40
2022-11-28T00:02:28.834Z,13.70
2022-11-28T00:02:50.107Z,14.20
2022-11-28T00:03:11.452Z,14.90
2022-11-28T00:03:32.720Z,14.40
2022-11-28T00:03:53.859Z,13.20
2022-11-28T00:04:15.082Z,14.30
2022-11-28T00:04:36.144Z,14.90
2022-11-28T00:04:57.226Z,14.60
2022-11-28T00:05:18.443Z,13.70
2022-11-28T00:05:44.293Z,14.70
2022-11-28T00:06:06.665Z,15.10
2022-11-28T00:06:28.098Z,14.70
2022-11-28T00:06:49.396Z,14.50
2022-11-28T00:07:10.478Z,14.60
2022-11-28T00:07:31.725Z,14.40
2022-11-28T00:07:52.880Z,14.50
2022-11-28T00:08:13.925Z,14.10
2022-11-28T00:08:34.984Z,14.30
2022-11-28T00:08:56.054Z,15.50
2022-11-28T00:09:17.115Z,14.50
2022-11-28T00:09:38.187Z,16.20
2022-11-28T00:09:59.267Z,15.50
2022-11-28T00:10:20.342Z,14.80
2022-11-28T00:10:41.614Z,13.90
2022-11-28T00:11:02.644Z,15.00
2022-11-28T00:11:23.726Z,14.90
2022-11-28T00:11:44.780Z,13.40
2022-11-28T00:12:05.855Z,13.40
2022-11-28T00:12:26.914Z,14.10
2022-11-28T00:12:47.991Z,15.30
2022-11-28T00:13:09.067Z,15.40
2022-11-28T00:13:30.178Z,15.20
2022-11-28T00:13:51.214Z,13.80
2022-11-28T00:14:12.285Z,15.30
2022-11-28T00:14:33.355Z,15.20
2022-11-28T00:14:54.420Z,13.90
2022-11-28T00:15:15.522Z,14.80
2022-11-28T00:15:36.620Z,14.80
2022-11-28T00:15:57.745Z,14.20
2022-11-28T00:16:18.902Z,13.50
2022-11-28T00:16:39.960Z,15.90
2022-11-28T00:17:01.012Z,14.30
2022-11-28T00:17:22.086Z,14.50
2022-11-28T00:17:43.149Z,14.10
2022-11-28T00:18:04.215Z,14.20
2022-11-28T00:18:25.278Z,14.10
2022-11-28T00:18:46.346Z,13.60
2022-11-28T00:19:07.437Z,13.00
2022-11-28T00:19:28.521Z,14.70
2022-11-28T00:19:49.579Z,14.70
2022-11-28T00:20:10.647Z,14.50
2022-11-28T00:20:31.718Z,14.70
2022-11-28T00:20:52.794Z,15.80
2022-11-28T00:21:13.965Z,15.70
2022-11-28T00:21:35.081Z,13.90
2022-11-28T00:21:56.270Z,12.50
2022-11-28T00:22:17.308Z,15.10
2022-11-28T00:22:38.337Z,15.40
2022-11-28T00:22:59.400Z,13.60
2022-11-28T00:23:20.467Z,14.30
2022-11-28T00:23:41.659Z,14.70
2022-11-28T00:24:02.726Z,14.10
2022-11-28T00:24:23.785Z,14.50
2022-11-28T00:24:45.095Z,14.80
2022-11-28T00:25:06.272Z,14.70
2022-11-28T00:25:27.334Z,14.20
2022-11-28T00:25:48.438Z,14.50
2022-11-28T00:26:09.500Z,14.30
2022-11-28T00:26:30.592Z,13.80
2022-11-28T00:26:51.628Z,14.50
2022-11-28T00:27:12.696Z,14.60
2022-11-28T00:27:33.805Z,14.20
2022-11-28T00:27:54.861Z,13.70
2022-11-28T00:28:15.981Z,15.40
2022-11-28T00:28:37.030Z,14.90
2022-11-28T00:28:58.096Z,14.90
2022-11-28T00:29:19.150Z,16.40
2022-11-28T00:29:40.252Z,15.70
2022-11-28T00:30:01.296Z,16.00
2022-11-28T00:30:22.352Z,15.60
2022-11-28T00:30:43.434Z,14.50
2022-11-28T00:31:04.498Z,15.80
2022-11-28T00:31:25.625Z,14.70
2022-11-28T00:31:46.722Z,13.90
2022-11-28T00:32:07.832Z,15.00
2022-11-28T00:32:28.903Z,14.40
2022-11-28T00:32:49.961Z,14.80
2022-11-28T00:33:11.031Z,15.60
2022-11-28T00:33:32.086Z,15.70
2022-11-28T00:33:53.187Z,14.20
2022-11-28T00:34:14.247Z,15.70
2022-11-28T00:34:35.308Z,14.70
2022-11-28T00:34:56.368Z,15.20
2022-11-28T00:35:17.431Z,14.80
2022-11-28T00:35:38.504Z,15.30
2022-11-28T00:35:59.601Z,14.50
2022-11-28T00:36:20.661Z,14.30
2022-11-28T00:36:41.705Z,15.00
2022-11-28T00:37:02.904Z,16.10
2022-11-28T00:37:23.921Z,14.50
2022-11-28T00:37:45.003Z,14.80
2022-11-28T00:38:06.051Z,13.70
2022-11-28T00:38:27.117Z,15.60
2022-11-28T00:38:48.189Z,15.50
2022-11-28T00:39:09.247Z,15.10
2022-11-28T00:39:30.302Z,15.80
2022-11-28T00:39:51.385Z,15.50
2022-11-28T00:40:12.439Z,15.30
2022-11-28T00:40:33.499Z,16.20
2022-11-28T00:40:54.566Z,16.00
2022-11-28T00:41:15.627Z,14.70
2022-11-28T00:41:36.704Z,14.20
2022-11-28T00:41:57.760Z,14.60
2022-11-28T00:42:18.853Z,15.20
2022-11-28T00:42:39.995Z,14.40
2022-11-28T00:43:01.048Z,14.20
2022-11-28T00:43:22.113Z,14.90
2022-11-28T00:43:43.163Z,14.30
2022-11-28T00:44:04.215Z,13.40
2022-11-28T00:44:25.278Z,15.20
2022-11-28T00:44:46.337Z,16.10
2022-11-28T00:45:07.386Z,16.80
2022-11-28T00:45:29.419Z,15.30
2022-11-28T00:45:50.531Z,14.10
2022-11-28T00:46:11.731Z,14.80
2022-11-28T00:46:32.814Z,14.80
2022-11-28T00:46:53.891Z,14.70
2022-11-28T00:47:14.964Z,16.30
2022-11-28T00:47:36.140Z,17.10
2022-11-28T00:47:57.210Z,14.20
2022-11-28T00:48:18.266Z,15.00
2022-11-28T00:48:39.330Z,15.10
2022-11-28T00:49:00.390Z,13.50
2022-11-28T00:49:21.453Z,14.40
2022-11-28T00:49:42.505Z,15.00
2022-11-28T00:50:03.580Z,15.40
2022-11-28T00:50:24.637Z,15.00
2022-11-28T00:50:45.706Z,14.90
2022-11-28T00:51:06.768Z,14.00
2022-11-28T00:51:27.860Z,14.30
2022-11-28T00:51:48.903Z,14.80
2022-11-28T00:52:10.090Z,15.00
2022-11-28T00:52:31.129Z,13.80
2022-11-28T00:52:52.229Z,14.60
2022-11-28T00:53:13.304Z,13.60
2022-11-28T00:53:34.369Z,14.20
2022-11-28T00:53:55.447Z,13.60
2022-11-28T00:54:16.519Z,14.10
2022-11-28T00:54:37.612Z,14.50
2022-11-28T00:54:58.727Z,15.30
2022-11-28T00:55:19.759Z,15.20
2022-11-28T00:55:40.821Z,15.90
2022-11-28T00:56:01.893Z,15.40
2022-11-28T00:56:22.958Z,15.30
2022-11-28T00:56:44.014Z,14.20
2022-11-28T00:57:05.080Z,13.60
2022-11-28T00:57:26.159Z,14.10
2022-11-28T00:57:47.220Z,14.50
2022-11-28T00:58:08.397Z,16.00
2022-11-28T00:58:29.467Z,15.50
2022-11-28T00:58:50.533Z,14.20
2022-11-28T00:59:11.606Z,15.20
2022-11-28T00:59:32.637Z,15.10
2022-11-28T00:59:53.694Z,14.90
2022-11-28T01:00:14.747Z,15.50
2022-11-28T01:00:35.799Z,15.50
2022-11-28T01:00:56.910Z,14.00
2022-11-28T01:01:18.008Z,13.00
2022-11-28T01:01:39.372Z,13.50
2022-11-28T01:02:00.525Z,14.50
2022-11-28T01:02:21.637Z,15.50
2022-11-28T01:02:42.818Z,14.50
2022-11-28T01:03:03.868Z,14.20
2022-11-28T01:03:25.077Z,14.50
2022-11-28T01:03:46.150Z,14.30
2022-11-28T01:04:07.324Z,13.90
2022-11-28T01:04:28.409Z,14.10
2022-11-28T01:04:49.467Z,14.00
2022-11-28T01:05:10.525Z,14.30
2022-11-28T01:05:31.586Z,16.80
2022-11-28T01:05:52.682Z,16.00
2022-11-28T01:06:13.735Z,17.90
2022-11-28T01:06:34.809Z,17.20
2022-11-28T01:06:55.881Z,14.70
2022-11-28T01:07:17.072Z,14.20
2022-11-28T01:07:38.197Z,14.60
2022-11-28T01:07:59.317Z,14.30
2022-11-28T01:08:20.389Z,14.20
2022-11-28T01:08:41.476Z,14.80
2022-11-28T01:09:02.520Z,15.10
2022-11-28T01:09:23.699Z,15.30
2022-11-28T01:09:44.766Z,13.80
2022-11-28T01:10:05.827Z,15.20
2022-11-28T01:10:26.901Z,14.10
2022-11-28T01:10:47.960Z,14.50
2022-11-28T01:11:09.024Z,14.20
2022-11-28T01:11:30.075Z,13.90
2022-11-28T01:11:51.128Z,13.90
2022-11-28T01:12:12.200Z,15.60
2022-11-28T01:12:33.270Z,14.80
2022-11-28T01:12:54.371Z,13.60
2022-11-28T01:13:15.416Z,14.50
2022-11-28T01:13:36.472Z,15.00
2022-11-28T01:13:57.564Z,14.50
2022-11-28T01:14:18.652Z,14.40
2022-11-28T01:14:39.960Z,13.70
2022-11-28T01:15:01.166Z,13.80
2022-11-28T01:15:22.238Z,13.70
2022-11-28T01:15:43.290Z,14.40
2022-11-28T01:16:04.380Z,15.40
2022-11-28T01:16:25.496Z,14.90
2022-11-28T01:16:46.620Z,14.70
2022-11-28T01:17:07.657Z,15.20
2022-11-28T01:17:28.722Z,14.70
2022-11-28T01:17:49.792Z,15.70
2022-11-28T01:18:10.865Z,14.50
2022-11-28T01:18:31.918Z,14.50
2022-11-28T01:18:52.987Z,14.10
2022-11-28T01:19:14.044Z,15.10
2022-11-28T01:19:35.210Z,13.80
2022-11-28T01:19:56.293Z,15.20
2022-11-28T01:20:17.342Z,15.40
2022-11-28T01:20:38.405Z,13.30
2022-11-28T01:20:59.465Z,13.40
2022-11-28T01:21:20.527Z,13.90
2022-11-28T01:21:41.590Z,13.80
2022-11-28T01:22:02.659Z,14.00
2022-11-28T01:22:23.843Z,13.70
2022-11-28T01:22:44.867Z,14.20
2022-11-28T01:23:05.930Z,14.80
2022-11-28T01:23:27.003Z,13.60
2022-11-28T01:23:48.078Z,13.70
2022-11-28T01:24:09.139Z,13.70
2022-11-28T01:24:30.203Z,15.20
2022-11-28T01:24:51.398Z,16.30
2022-11-28T01:25:12.490Z,14.60
2022-11-28T01:25:33.543Z,15.60
2022-11-28T01:25:54.606Z,16.40
2022-11-28T01:26:15.656Z,14.60
2022-11-28T01:26:36.730Z,16.80
2022-11-28T01:26:57.788Z,16.40
2022-11-28T01:27:18.860Z,14.60
2022-11-28T01:27:39.960Z,15.40
2022-11-28T01:28:01.060Z,15.10
2022-11-28T01:28:22.101Z,14.10
2022-11-28T01:28:43.185Z,15.20
2022-11-28T01:29:04.254Z,14.60
2022-11-28T01:29:25.296Z,16.10
2022-11-28T01:29:46.477Z,16.20
2022-11-28T01:30:07.539Z,15.80
2022-11-28T01:30:28.589Z,16.40
2022-11-28T01:30:49.660Z,15.40
2022-11-28T01:31:10.762Z,15.40
2022-11-28T01:31:31.893Z,15.10
2022-11-28T01:31:53.100Z,15.50
2022-11-28T01:32:14.137Z,16.20
2022-11-28T01:32:35.194Z,16.80
2022-11-28T01:32:56.253Z,13.90
2022-11-28T01:33:17.326Z,14.50
2022-11-28T01:33:38.390Z,14.20
2022-11-28T01:33:59.451Z,14.80
2022-11-28T01:34:20.501Z,14.90
2022-11-28T01:34:41.893Z,13.90
2022-11-28T01:35:03.079Z,15.10
2022-11-28T01:35:24.784Z,14.80
2022-11-28T01:35:45.816Z,13.10
2022-11-28T01:36:06.881Z,13.20
2022-11-28T01:36:27.944Z,13.60
2022-11-28T01:36:48.997Z,13.70
2022-11-28T01:37:10.046Z,12.60
2022-11-28T01:37:31.220Z,13.40
2022-11-28T01:37:52.221Z,15.00
2022-11-28T01:38:13.282Z,13.40
2022-11-28T01:38:34.337Z,13.80
2022-11-28T01:38:55.418Z,13.30
2022-11-28T01:39:16.463Z,12.50
2022-11-28T01:39:37.526Z,13.30
2022-11-28T01:39:58.612Z,13.10
2022-11-28T01:40:19.666Z,12.30
2022-11-28T01:40:40.734Z,13.90
2022-11-28T01:41:01.787Z,12.00
2022-11-28T01:41:22.859Z,12.90
2022-11-28T01:41:43.919Z,15.30
2022-11-28T01:42:04.994Z,15.20
2022-11-28T01:42:26.055Z,14.70
2022-11-28T01:42:47.103Z,14.20
2022-11-28T01:43:08.175Z,13.20
2022-11-28T01:43:29.222Z,12.30
2022-11-28T01:43:50.286Z,13.10
2022-11-28T01:44:11.354Z,13.60
2022-11-28T01:44:32.433Z,13.30
2022-11-28T01:44:53.607Z,14.70
2022-11-28T01:45:14.676Z,14.80
2022-11-28T01:45:35.736Z,13.80
2022-11-28T01:45:56.792Z,14.10
2022-11-28T01:46:17.924Z,12.70
2022-11-28T01:46:39.019Z,13.20
2022-11-28T01:47:00.098Z,14.70
2022-11-28T01:47:21.168Z,13.20
2022-11-28T01:47:42.237Z,13.10
2022-11-28T01:48:03.299Z,12.60
2022-11-28T01:48:24.354Z,12.30
2022-11-28T01:48:45.409Z,13.90
2022-11-28T01:49:06.467Z,13.30
2022-11-28T01:49:27.518Z,13.10
2022-11-28T01:49:48.573Z,12.20
2022-11-28T01:50:09.667Z,12.70
2022-11-28T01:50:30.735Z,13.90
2022-11-28T01:50:51.793Z,12.60
2022-11-28T01:51:12.862Z,13.30
2022-11-28T01:51:33.951Z,12.20
2022-11-28T01:51:55.036Z,11.90
2022-11-28T01:52:16.081Z,12.40
2022-11-28T01:52:37.263Z,12.70
2022-11-28T01:52:58.277Z,14.00
2022-11-28T01:53:19.337Z,13.90
2022-11-28T01:53:40.397Z,12.60
2022-11-28T01:54:01.457Z,12.80
2022-11-28T01:54:22.519Z,14.00
2022-11-28T01:54:43.836Z,12.50
2022-11-28T01:55:04.997Z,12.90
2022-11-28T01:55:26.090Z,13.60
2022-11-28T01:55:47.124Z,12.30
2022-11-28T01:56:08.201Z,12.70
2022-11-28T01:56:29.253Z,13.20
2022-11-28T01:56:50.333Z,12.50
2022-11-28T01:57:11.399Z,11.80
2022-11-28T01:57:32.509Z,12.30
2022-11-28T01:57:53.544Z,13.10
2022-11-28T01:58:14.599Z,12.60
2022-11-28T01:58:35.667Z,13.30
2022-11-28T01:58:56.725Z,14.50
2022-11-28T01:59:17.791Z,12.80
2022-11-28T01:59:38.859Z,11.60
2022-11-28T02:00:00.018Z,12.90
2022-11-28T02:00:21.065Z,11.90
2022-11-28T02:00:42.309Z,12.10
2022-11-28T02:01:03.399Z,12.20
2022-11-28T02:01:24.614Z,13.10
2022-11-28T02:01:45.680Z,13.50
2022-11-28T02:02:06.788Z,13.60
2022-11-28T02:02:27.936Z,13.00
2022-11-28T02:02:49.027Z,12.70
2022-11-28T02:03:10.089Z,13.00
2022-11-28T02:03:31.165Z,12.90
2022-11-28T02:03:52.211Z,13.30
2022-11-28T02:04:13.273Z,12.40
2022-11-28T02:04:34.327Z,12.00
2022-11-28T02:04:55.378Z,13.30
2022-11-28T02:05:16.444Z,13.50
2022-11-28T02:05:37.512Z,14.30
2022-11-28T02:05:58.590Z,13.40
2022-11-28T02:06:19.657Z,13.20
2022-11-28T02:06:40.716Z,13.90
2022-11-28T02:07:01.771Z,13.00
2022-11-28T02:07:22.838Z,14.40
2022-11-28T02:07:44.179Z,14.00
2022-11-28T02:08:05.338Z,11.90
2022-11-28T02:08:26.395Z,13.40
2022-11-28T02:08:47.493Z,15.00
2022-11-28T02:09:08.575Z,13.60
2022-11-28T02:09:29.614Z,12.40
2022-11-28T02:09:50.695Z,13.90
2022-11-28T02:10:11.770Z,12.70
2022-11-28T02:10:32.822Z,13.40
2022-11-28T02:10:54.027Z,16.50
2022-11-28T02:11:15.097Z,19.30
2022-11-28T02:11:36.242Z,21.20
2022-11-28T02:11:57.279Z,21.20
2022-11-28T02:12:18.323Z,20.50
2022-11-28T02:12:39.388Z,20.50
2022-11-28T02:13:00.446Z,19.00
2022-11-28T02:13:21.511Z,16.80
2022-11-28T02:13:42.623Z,17.80
2022-11-28T02:14:03.658Z,17.60
2022-11-28T02:14:24.724Z,17.20
2022-11-28T02:14:45.788Z,18.90
2022-11-28T02:15:06.851Z,18.20
2022-11-28T02:15:27.932Z,17.10
2022-11-28T02:15:49.073Z,17.90
2022-11-28T02:16:10.353Z,17.10
2022-11-28T02:16:31.496Z,16.10
2022-11-28T02:16:52.552Z,16.00
2022-11-28T02:17:13.622Z,15.90
2022-11-28T02:17:34.699Z,15.70
2022-11-28T02:17:55.745Z,16.00
2022-11-28T02:18:16.804Z,15.80
2022-11-28T02:18:37.878Z,14.90
2022-11-28T02:18:58.937Z,14.60
2022-11-28T02:19:19.993Z,14.60
2022-11-28T02:19:41.058Z,15.30
2022-11-28T02:20:02.139Z,15.80
2022-11-28T02:20:23.182Z,16.10
2022-11-28T02:20:44.241Z,16.30
2022-11-28T02:21:05.304Z,16.10
2022-11-28T02:21:26.495Z,16.30
2022-11-28T02:21:47.543Z,17.80
2022-11-28T02:22:08.615Z,18.00
2022-11-28T02:22:29.669Z,16.50
2022-11-28T02:22:50.845Z,17.70
2022-11-28T02:23:11.860Z,16.90
2022-11-28T02:23:32.909Z,17.30
2022-11-28T02:23:53.971Z,17.50
2022-11-28T02:24:15.031Z,17.60
2022-11-28T02:24:36.092Z,16.80
2022-11-28T02:24:57.152Z,17.60
2022-11-28T02:25:18.214Z,17.00
2022-11-28T02:25:39.269Z,17.80
2022-11-28T02:26:00.335Z,16.20
2022-11-28T02:26:21.396Z,16.10
2022-11-28T02:26:42.449Z,16.80
2022-11-28T02:27:03.507Z,17.00
2022-11-28T02:27:24.581Z,17.20
2022-11-28T02:27:45.658Z,17.30
2022-11-28T02:28:06.706Z,17.90
2022-11-28T02:28:27.763Z,17.40
2022-11-28T02:28:48.818Z,17.90
2022-11-28T02:29:09.886Z,18.60
2022-11-28T02:29:31.004Z,17.00
2022-11-28T02:29:52.073Z,18.30
2022-11-28T02:30:13.130Z,16.90
2022-11-28T02:30:34.176Z,15.70
2022-11-28T02:30:55.228Z,16.60
2022-11-28T02:31:16.319Z,17.90
2022-11-28T02:31:37.453Z,18.50
2022-11-28T02:31:58.532Z,19.00
2022-11-28T02:32:19.596Z,17.80
2022-11-28T02:32:40.683Z,18.00
2022-11-28T02:33:01.733Z,17.40
2022-11-28T02:33:22.790Z,18.30
2022-11-28T02:33:43.857Z,18.70
2022-11-28T02:34:04.919Z,19.10
2022-11-28T02:34:25.977Z,18.20
2022-11-28T02:34:47.447Z,18.90
2022-11-28T02:35:08.488Z,18.70
2022-11-28T02:35:29.555Z,18.50
2022-11-28T02:35:50.623Z,17.30
2022-11-28T02:36:11.680Z,16.70
2022-11-28T02:36:32.761Z,17.40
2022-11-28T02:36:53.818Z,16.80
2022-11-28T02:37:14.862Z,17.80
2022-11-28T02:37:35.917Z,18.20
2022-11-28T02:37:57.115Z,17.00
2022-11-28T02:38:18.136Z,17.30
2022-11-28T02:38:39.205Z,17.50
2022-11-28T02:39:00.284Z,18.70
2022-11-28T02:39:21.348Z,18.30
2022-11-28T02:39:42.392Z,19.00
2022-11-28T02:40:03.438Z,16.80
2022-11-28T02:40:24.507Z,16.60
2022-11-28T02:40:45.564Z,15.80
2022-11-28T02:41:06.660Z,15.90
2022-11-28T02:41:27.713Z,16.60
2022-11-28T02:41:48.770Z,22.50
2022-11-28T02:42:09.841Z,18.90
2022-11-28T02:42:30.908Z,16.70
2022-11-28T02:42:51.956Z,19.20
2022-11-28T02:43:13.125Z,17.90
2022-11-28T02:43:34.182Z,19.00
2022-11-28T02:43:55.271Z,19.50
2022-11-28T02:44:16.374Z,19.50
2022-11-28T02:44:37.406Z,17.70
2022-11-28T02:44:58.471Z,18.00
2022-11-28T02:45:19.569Z,17.70
2022-11-28T02:45:40.629Z,17.70
2022-11-28T02:46:01.697Z,17.60
2022-11-28T02:46:22.786Z,17.40
2022-11-28T02:46:43.953Z,17.80
2022-11-28T02:47:05.037Z,17.10
2022-11-28T02:47:26.079Z,17.40
2022-11-28T02:47:47.148Z,18.80
2022-11-28T02:48:08.204Z,18.50
2022-11-28T02:48:29.279Z,19.00
2022-11-28T02:48:50.342Z,17.80
2022-11-28T02:49:11.392Z,17.80
2022-11-28T02:49:32.456Z,16.40
2022-11-28T02:49:53.521Z,17.00
2022-11-28T02:50:14.584Z,18.00
2022-11-28T02:50:35.643Z,17.20
2022-11-28T02:50:56.705Z,18.10
2022-11-28T02:51:17.789Z,18.50
2022-11-28T02:51:38.847Z,17.60
2022-11-28T02:51:59.945Z,17.50
2022-11-28T02:52:21.014Z,17.50
2022-11-28T02:52:42.075Z,16.00
2022-11-28T02:53:03.244Z,17.50
2022-11-28T02:53:24.248Z,17.20
2022-11-28T02:54:06.469Z,19.10
2022-11-28T02:54:27.528Z,18.20
2022-11-28T02:54:48.588Z,17.40
2022-11-28T02:55:09.655Z,18.20
2022-11-28T02:55:30.702Z,18.40
2022-11-28T02:55:51.757Z,18.40
2022-11-28T02:56:12.819Z,19.80
2022-11-28T02:56:33.874Z,19.50
2022-11-28T02:56:54.936Z,17.20
2022-11-28T02:57:15.997Z,17.30
2022-11-28T02:57:37.053Z,18.10
2022-11-28T02:57:58.110Z,19.00
2022-11-28T02:58:19.169Z,18.10
2022-11-28T02:58:40.265Z,19.40
2022-11-28T02:59:01.375Z,16.40
2022-11-28T02:59:22.418Z,17.80
2022-11-28T02:59:43.475Z,18.70
2022-11-28T03:00:04.535Z,18.40
2022-11-28T03:00:25.663Z,18.80
2022-11-28T03:00:46.760Z,18.20
2022-11-28T03:01:07.877Z,18.00
2022-11-28T03:01:28.982Z,18.60
2022-11-28T03:01:50.180Z,18.00
2022-11-28T03:02:11.258Z,18.30
2022-11-28T03:02:32.481Z,19.20
2022-11-28T03:02:53.706Z,17.80
2022-11-28T03:03:14.759Z,17.10
2022-11-28T03:03:35.833Z,18.20
2022-11-28T03:03:56.887Z,18.70
2022-11-28T03:04:17.972Z,20.60
2022-11-28T03:04:39.091Z,20.50
2022-11-28T03:05:00.137Z,19.80
2022-11-28T03:05:21.201Z,18.10
2022-11-28T03:05:42.249Z,18.90
2022-11-28T03:06:03.303Z,18.10
2022-11-28T03:06:24.369Z,17.90
2022-11-28T03:06:45.428Z,17.40
2022-11-28T03:07:06.486Z,18.30
2022-11-28T03:07:27.637Z,18.80
2022-11-28T03:07:48.709Z,18.80
2022-11-28T03:08:09.894Z,18.70
2022-11-28T03:08:30.908Z,20.20
2022-11-28T03:08:51.986Z,20.00
2022-11-28T03:09:13.058Z,17.90
2022-11-28T03:09:34.265Z,17.50
2022-11-28T03:09:55.419Z,18.50
2022-11-28T03:10:16.476Z,17.80
2022-11-28T03:10:37.528Z,18.20
2022-11-28T03:10:58.600Z,18.30
2022-11-28T03:11:19.660Z,16.60
2022-11-28T03:11:40.727Z,18.10
2022-11-28T03:12:01.798Z,19.30
2022-11-28T03:12:22.861Z,19.20
2022-11-28T03:12:43.929Z,18.00
2022-11-28T03:13:04.997Z,18.60
2022-11-28T03:13:26.064Z,17.80
2022-11-28T03:13:47.132Z,19.40
2022-11-28T03:14:08.198Z,19.50
2022-11-28T03:14:29.261Z,18.90
2022-11-28T03:14:50.327Z,18.10
2022-11-28T03:15:11.439Z,18.80
2022-11-28T03:15:32.505Z,18.20
2022-11-28T03:15:53.629Z,18.50
2022-11-28T03:16:14.701Z,19.10
2022-11-28T03:16:35.823Z,19.40
2022-11-28T03:16:56.882Z,19.80
2022-11-28T03:17:18.025Z,19.00
2022-11-28T03:17:39.079Z,19.60
2022-11-28T03:18:00.157Z,20.10
2022-11-28T03:18:21.215Z,17.90
2022-11-28T03:18:42.295Z,17.70
2022-11-28T03:19:03.364Z,19.20
2022-11-28T03:19:24.439Z,20.50
2022-11-28T03:19:45.491Z,20.20
2022-11-28T03:20:06.552Z,20.90
2022-11-28T03:20:27.624Z,18.30
2022-11-28T03:20:48.699Z,20.20
2022-11-28T03:21:09.878Z,19.30
2022-11-28T03:21:30.940Z,20.10
2022-11-28T03:21:52.051Z,18.90
2022-11-28T03:22:13.084Z,16.70
2022-11-28T03:22:34.180Z,16.80
2022-11-28T03:22:55.245Z,19.50
2022-11-28T03:23:16.419Z,20.00
2022-11-28T03:23:37.436Z,19.40
2022-11-28T03:23:58.515Z,18.40
2022-11-28T03:24:19.568Z,19.10
2022-11-28T03:24:41.084Z,20.20
2022-11-28T03:25:02.289Z,19.60
2022-11-28T03:25:23.359Z,19.40
2022-11-28T03:25:44.421Z,18.00
2022-11-28T03:26:05.484Z,17.90
2022-11-28T03:26:26.671Z,19.10
2022-11-28T03:26:47.737Z,19.40
2022-11-28T03:27:08.799Z,19.40
2022-11-28T03:27:29.887Z,20.10
2022-11-28T03:27:50.942Z,19.80
2022-11-28T03:28:12.001Z,17.80
2022-11-28T03:28:33.090Z,18.00
2022-11-28T03:28:54.153Z,18.80
2022-11-28T03:29:15.206Z,19.50
2022-11-28T03:29:36.263Z,20.20
2022-11-28T03:29:57.319Z,20.80
2022-11-28T03:30:18.369Z,20.20
2022-11-28T03:30:39.439Z,19.20
2022-11-28T03:31:00.664Z,18.80
2022-11-28T03:31:21.796Z,18.80
2022-11-28T03:31:42.927Z,20.70
2022-11-28T03:32:03.988Z,20.90
2022-11-28T03:32:25.035Z,19.80
2022-11-28T03:32:46.090Z,20.00
2022-11-28T03:33:07.149Z,20.30
2022-11-28T03:33:28.204Z,19.20
2022-11-28T03:33:49.282Z,19.30
2022-11-28T03:34:10.331Z,19.10
2022-11-28T03:34:31.417Z,18.10
2022-11-28T03:34:52.477Z,20.00
2022-11-28T03:35:13.563Z,19.30
2022-11-28T03:35:34.598Z,20.20
2022-11-28T03:35:55.749Z,19.80
2022-11-28T03:36:16.897Z,18.60
2022-11-28T03:36:38.023Z,20.20
2022-11-28T03:37:00.110Z,18.60
2022-11-28T03:37:21.161Z,18.80
2022-11-28T03:37:42.211Z,18.60
2022-11-28T03:38:03.301Z,18.90
2022-11-28T03:38:24.474Z,18.10
2022-11-28T03:38:45.495Z,17.20
2022-11-28T03:39:06.561Z,19.80
2022-11-28T03:39:27.620Z,19.90
2022-11-28T03:39:48.710Z,20.60
2022-11-28T03:40:09.825Z,19.20
2022-11-28T03:40:30.969Z,19.30
2022-11-28T03:40:52.009Z,20.60
2022-11-28T03:41:13.079Z,19.30
2022-11-28T03:41:34.142Z,21.00
2022-11-28T03:41:55.225Z,20.90
2022-11-28T03:42:16.281Z,19.40
2022-11-28T03:42:37.356Z,19.80
2022-11-28T03:42:58.439Z,20.40
2022-11-28T03:43:19.492Z,20.80
2022-11-28T03:43:40.546Z,20.40
2022-11-28T03:44:01.651Z,20.80
2022-11-28T03:44:22.838Z,19.80
2022-11-28T03:44:44.195Z,21.00
2022-11-28T03:45:05.327Z,19.30
2022-11-28T03:45:26.402Z,19.40
2022-11-28T03:45:47.613Z,19.40
2022-11-28T03:46:08.652Z,20.10
2022-11-28T03:46:29.809Z,20.30
2022-11-28T03:46:50.934Z,20.20
2022-11-28T03:47:12.078Z,22.50
2022-11-28T03:47:33.162Z,20.70
2022-11-28T03:47:54.268Z,19.70
2022-11-28T03:48:15.338Z,20.20
2022-11-28T03:48:36.441Z,19.50
2022-11-28T03:48:57.485Z,20.50
2022-11-28T03:49:18.659Z,20.80
2022-11-28T03:49:39.732Z,22.50
2022-11-28T03:50:00.832Z,21.00
2022-11-28T03:50:21.855Z,20.90
2022-11-28T03:50:42.925Z,21.30
2022-11-28T03:51:03.989Z,21.00
2022-11-28T03:51:25.092Z,20.10
2022-11-28T03:51:46.148Z,21.20
2022-11-28T03:52:07.209Z,21.00
2022-11-28T03:52:28.297Z,20.90
2022-11-28T03:52:49.371Z,21.10
2022-11-28T03:53:10.475Z,20.50
2022-11-28T03:53:31.643Z,21.50
2022-11-28T03:53:52.651Z,21.90
2022-11-28T03:54:13.786Z,21.30
2022-11-28T03:54:34.913Z,21.00
2022-11-28T03:54:55.971Z,21.10
2022-11-28T03:55:17.051Z,21.50
2022-11-28T03:55:38.156Z,21.30
2022-11-28T03:55:59.360Z,20.80
2022-11-28T03:56:20.519Z,19.50
2022-11-28T03:56:41.570Z,20.50
2022-11-28T03:57:02.637Z,20.20
2022-11-28T03:57:24.655Z,20.40
2022-11-28T03:57:45.711Z,19.20
2022-11-28T03:58:06.775Z,20.00
2022-11-28T03:58:27.840Z,20.40
2022-11-28T03:58:48.903Z,21.20
2022-11-28T03:59:10.060Z,22.70
2022-11-28T03:59:31.383Z,22.90
2022-11-28T03:59:52.536Z,20.10
2022-11-28T04:00:13.671Z,20.20
2022-11-28T04:00:34.804Z,22.80
2022-11-28T04:00:55.970Z,21.70
2022-11-28T04:01:17.164Z,19.80
2022-11-28T04:01:38.327Z,20.40
2022-11-28T04:01:59.380Z,21.50
2022-11-28T04:02:20.673Z,20.90
2022-11-28T04:02:41.798Z,21.10
2022-11-28T04:03:02.906Z,22.80
2022-11-28T04:03:23.999Z,21.80
2022-11-28T04:03:45.168Z,21.40
2022-11-28T04:04:06.226Z,22.30
2022-11-28T04:04:27.277Z,20.70
2022-11-28T04:04:48.442Z,20.30
2022-11-28T04:05:09.507Z,22.60
2022-11-28T04:05:30.560Z,21.50
2022-11-28T04:05:51.662Z,20.70
2022-11-28T04:06:12.773Z,21.90
2022-11-28T04:06:34.061Z,21.50
2022-11-28T04:06:56.120Z,21.60
2022-11-28T04:07:17.253Z,21.30
2022-11-28T04:07:38.340Z,21.50
2022-11-28T04:07:59.561Z,21.60
2022-11-28T04:08:20.660Z,21.10
2022-11-28T04:08:41.837Z,19.70
2022-11-28T04:09:02.847Z,20.20
2022-11-28T04:09:23.925Z,20.60
2022-11-28T04:09:45.014Z,21.60
2022-11-28T04:10:06.079Z,21.30
2022-11-28T04:10:27.231Z,21.20
2022-11-28T04:10:48.307Z,21.80
2022-11-28T04:11:09.435Z,21.00
2022-11-28T04:11:30.513Z,23.00
2022-11-28T04:11:51.759Z,22.50
2022-11-28T04:12:12.788Z,20.60
2022-11-28T04:12:33.878Z,22.00
2022-11-28T04:12:54.937Z,21.30
2022-11-28T04:13:16.022Z,21.80
2022-11-28T04:13:37.066Z,22.20
2022-11-28T04:13:58.155Z,21.40
2022-11-28T04:14:19.270Z,21.90
2022-11-28T04:14:40.951Z,21.70
2022-11-28T04:15:02.306Z,21.90
2022-11-28T04:15:23.369Z,22.90
2022-11-28T04:15:44.458Z,22.30
2022-11-28T04:16:05.619Z,23.80
2022-11-28T04:16:26.739Z,23.10
2022-11-28T04:16:53.391Z,23.10
2022-11-28T04:17:14.820Z,23.90
2022-11-28T04:17:35.867Z,24.00
2022-11-28T04:17:57.021Z,23.70
2022-11-28T04:18:18.113Z,21.80
2022-11-28T04:18:39.193Z,20.70
2022-11-28T04:19:00.246Z,21.80
2022-11-28T04:19:21.310Z,21.90
2022-11-28T04:19:42.401Z,20.60
2022-11-28T04:20:03.535Z,21.50
2022-11-28T04:20:24.679Z,24.10
2022-11-28T04:20:45.751Z,25.00
2022-11-28T04:21:06.805Z,21.30
2022-11-28T04:21:27.869Z,21.30
2022-11-28T04:21:49.181Z,22.10
2022-11-28T04:22:10.256Z,21.80
2022-11-28T04:22:31.328Z,22.70
2022-11-28T04:22:52.503Z,23.90
2022-11-28T04:23:13.688Z,21.30
2022-11-28T04:23:34.712Z,22.90
2022-11-28T04:23:55.884Z,22.60
2022-11-28T04:24:16.917Z,23.00
2022-11-28T04:24:38.010Z,22.30
2022-11-28T04:24:59.083Z,24.60
2022-11-28T04:25:20.254Z,24.50
2022-11-28T04:25:41.329Z,22.50
2022-11-28T04:26:02.404Z,22.30
2022-11-28T04:26:23.589Z,21.10
2022-11-28T04:26:44.684Z,21.00
2022-11-28T04:27:05.789Z,22.50
2022-11-28T04:27:26.890Z,22.10
2022-11-28T04:27:47.962Z,22.60
2022-11-28T04:28:09.059Z,22.00
2022-11-28T04:28:30.131Z,20.30
2022-11-28T04:28:51.216Z,21.20
2022-11-28T04:29:12.290Z,21.20
2022-11-28T04:29:33.416Z,21.90
2022-11-28T04:29:54.501Z,22.30
2022-11-28T04:30:15.599Z,21.50
2022-11-28T04:30:37.732Z,21.30
2022-11-28T04:30:58.810Z,21.70
2022-11-28T04:31:20.074Z,21.60
2022-11-28T04:31:42.174Z,22.40
2022-11-28T04:32:03.325Z,21.50